Time;durP1;ratioP1;P1;durP2;ratioP2;P2;SDS_P1;SDS_P2;PMS_P1;PMS_P2;Temp;Humidity;BMP_temperature;BMP_pressure;BME280_temperature;BME280_humidity;BME280_pressure;Samples;Min_cycle;Max_cycle;Signal;HPM_P1;HPM_P2
2023/07/12 00:00:28;;;;;;;3.70;2.42;;;19.80;99.90;;;;;;5093923;28;20063;-71
2023/07/12 00:02:54;;;;;;;6.57;2.95;;;19.80;99.90;;;;;;5093599;28;20559;-71
2023/07/12 00:05:21;;;;;;;8.30;2.67;;;19.70;99.90;;;;;;5093615;28;20111;-71
2023/07/12 00:07:46;;;;;;;4.13;3.00;;;19.80;99.90;;;;;;5090988;28;20430;-71
2023/07/12 00:10:18;;;;;;;4.32;2.33;;;19.80;99.90;;;;;;5092118;28;20119;-71
2023/07/12 00:12:43;;;;;;;3.70;2.72;;;19.70;99.90;;;;;;5092677;28;20127;-71
2023/07/12 00:15:11;;;;;;;6.47;2.75;;;19.70;99.90;;;;;;5093144;28;20088;-71
2023/07/12 00:17:37;;;;;;;4.10;2.53;;;19.70;99.90;;;;;;5093307;28;20491;-72
2023/07/12 00:20:04;;;;;;;4.00;2.60;;;19.70;99.90;;;;;;5093441;28;20036;-71
2023/07/12 00:22:29;;;;;;;8.32;2.90;;;19.60;99.90;;;;;;5092648;28;20129;-71
2023/07/12 00:24:55;;;;;;;3.97;2.17;;;19.50;99.90;;;;;;5093521;28;20059;-71
2023/07/12 00:27:20;;;;;;;5.03;2.28;;;19.50;99.90;;;;;;5093013;28;20067;-72
2023/07/12 00:29:46;;;;;;;4.10;2.47;;;19.50;99.90;;;;;;5091376;28;20388;-72
2023/07/12 00:32:11;;;;;;;5.15;2.10;;;19.50;99.90;;;;;;5091284;28;20450;-72
2023/07/12 00:34:37;;;;;;;3.55;1.88;;;19.50;99.90;;;;;;5092991;28;20500;-71
2023/07/12 00:37:03;;;;;;;2.75;1.80;;;19.50;99.90;;;;;;5091587;28;20483;-71
2023/07/12 00:39:28;;;;;;;4.82;2.13;;;19.50;99.90;;;;;;5092835;28;20032;-71
2023/07/12 00:42:22;;;;;;;4.25;2.00;;;19.40;99.90;;;;;;5092755;28;20142;-71
2023/07/12 00:47:24;;;;;;;3.30;1.75;;;19.40;99.90;;;;;;5372601;22;20438;-71
2023/07/12 00:49:51;;;;;;;4.35;2.03;;;19.40;99.90;;;;;;5050916;28;20040;-71
2023/07/12 00:52:19;;;;;;;2.72;1.80;;;19.30;99.90;;;;;;5041589;28;20053;-71
2023/07/12 00:54:49;;;;;;;4.28;2.40;;;19.40;99.90;;;;;;5034779;28;20132;-71
2023/07/12 00:57:14;;;;;;;5.60;2.33;;;19.10;99.90;;;;;;5046187;28;20056;-71
2023/07/12 00:59:41;;;;;;;4.63;2.30;;;19.20;99.90;;;;;;5076455;22;20037;-72
2023/07/12 01:02:07;;;;;;;4.07;2.20;;;19.00;99.90;;;;;;5030135;28;20076;-71
2023/07/12 01:04:37;;;;;;;3.22;1.88;;;19.10;99.90;;;;;;5032334;28;20408;-71
2023/07/12 01:07:03;;;;;;;3.55;2.13;;;18.90;99.90;;;;;;5032045;28;20033;-71
2023/07/12 01:09:31;;;;;;;4.20;1.95;;;19.00;99.90;;;;;;5032220;28;20048;-71
2023/07/12 01:11:57;;;;;;;3.58;1.92;;;19.00;99.90;;;;;;5032125;28;20045;-71
2023/07/12 01:14:22;;;;;;;6.00;2.00;;;18.90;99.90;;;;;;5031633;28;20043;-71
2023/07/12 01:16:53;;;;;;;4.93;1.98;;;19.10;99.90;;;;;;5030126;28;20124;-71
2023/07/12 01:19:19;;;;;;;4.50;2.08;;;19.10;99.90;;;;;;5030980;28;20083;-71
2023/07/12 01:21:49;;;;;;;4.47;2.17;;;19.10;99.90;;;;;;5032002;28;20045;-71
2023/07/12 01:24:15;;;;;;;4.15;2.22;;;19.20;99.90;;;;;;5032046;28;20077;-71
2023/07/12 01:26:46;;;;;;;7.10;2.00;;;19.10;99.90;;;;;;5031615;28;20454;-71
2023/07/12 01:29:12;;;;;;;5.32;2.30;;;19.00;99.90;;;;;;5031744;28;20080;-71
2023/07/12 01:31:39;;;;;;;7.13;2.25;;;19.00;99.90;;;;;;5031600;28;20529;-71
2023/07/12 01:34:06;;;;;;;5.43;2.00;;;19.00;99.90;;;;;;5031952;28;20404;-72
2023/07/12 01:36:32;;;;;;;6.13;2.17;;;19.00;99.90;;;;;;5031459;28;20041;-71
2023/07/12 01:39:00;;;;;;;4.30;2.15;;;19.10;99.90;;;;;;5031711;28;20045;-71
2023/07/12 01:41:25;;;;;;;4.57;2.03;;;19.00;99.90;;;;;;5030802;28;20079;-71
2023/07/12 01:43:51;;;;;;;4.75;2.50;;;19.00;99.90;;;;;;5031848;28;20033;-71
2023/07/12 01:46:17;;;;;;;3.58;1.73;;;19.00;99.90;;;;;;5031072;28;20046;-72
2023/07/12 01:48:43;;;;;;;3.00;1.98;;;19.00;99.90;;;;;;5031610;28;20077;-71
2023/07/12 01:51:10;;;;;;;5.03;2.30;;;18.80;99.90;;;;;;5031511;28;20084;-71
2023/07/12 01:53:35;;;;;;;2.97;2.38;;;18.90;99.90;;;;;;5031571;28;20095;-71
2023/07/12 01:56:03;;;;;;;6.05;2.03;;;18.70;99.90;;;;;;5030969;28;20041;-71
2023/07/12 01:58:28;;;;;;;5.18;2.25;;;18.70;99.90;;;;;;5031528;28;20385;-71
2023/07/12 02:00:55;;;;;;;3.95;2.53;;;18.80;99.90;;;;;;5031370;28;20043;-71
2023/07/12 02:03:20;;;;;;;4.28;2.65;;;18.70;99.90;;;;;;5031347;28;20496;-71
2023/07/12 02:05:46;;;;;;;4.05;2.75;;;18.70;99.90;;;;;;5031136;28;20033;-71
2023/07/12 02:08:12;;;;;;;5.15;3.08;;;18.70;99.90;;;;;;5031382;28;20373;-71
2023/07/12 02:10:38;;;;;;;6.55;2.75;;;18.50;99.90;;;;;;5031051;28;20167;-71
2023/07/12 02:13:04;;;;;;;5.25;2.88;;;18.70;99.90;;;;;;5029858;28;20037;-71
2023/07/12 02:15:30;;;;;;;6.95;3.45;;;18.60;99.90;;;;;;5030861;28;20033;-71
2023/07/12 02:17:56;;;;;;;5.72;3.30;;;18.50;99.90;;;;;;5031187;28;20515;-71
2023/07/12 02:20:22;;;;;;;5.50;3.40;;;18.50;99.90;;;;;;5031242;28;20041;-71
2023/07/12 02:22:48;;;;;;;7.53;4.15;;;18.40;99.90;;;;;;5031259;28;20079;-71
2023/07/12 02:25:14;;;;;;;4.57;2.97;;;18.40;99.90;;;;;;5031087;28;20497;-71
2023/07/12 02:27:41;;;;;;;5.65;4.15;;;18.40;99.90;;;;;;5030814;28;20033;-71
2023/07/12 02:30:19;;;;;;;5.55;3.70;;;18.30;99.90;;;;;;5031230;28;20037;-71
2023/07/12 02:32:46;;;;;;;5.40;3.50;;;18.40;99.90;;;;;;5031287;28;20087;-71
2023/07/12 02:35:12;;;;;;;9.38;4.07;;;18.40;99.90;;;;;;5029095;28;20111;-71
2023/07/12 02:37:38;;;;;;;6.57;4.13;;;18.20;99.90;;;;;;5027944;28;20145;-71
2023/07/12 02:40:05;;;;;;;7.22;3.78;;;18.40;99.90;;;;;;5022707;28;20116;-71
2023/07/12 02:42:31;;;;;;;8.10;4.22;;;18.20;99.90;;;;;;5031169;28;20041;-71
2023/07/12 02:44:56;;;;;;;12.20;4.70;;;18.30;99.90;;;;;;5031220;28;20040;-71
2023/07/12 02:47:22;;;;;;;8.07;4.05;;;18.20;99.90;;;;;;5030856;28;20084;-71
2023/07/12 02:49:48;;;;;;;10.93;4.80;;;18.20;99.90;;;;;;5030850;28;20038;-71
2023/07/12 02:52:14;;;;;;;15.60;5.07;;;18.20;99.90;;;;;;5031007;28;20041;-71
2023/07/12 02:54:39;;;;;;;9.32;4.00;;;18.20;99.90;;;;;;5050059;28;20091;-71
2023/07/12 02:57:08;;;;;;;11.40;5.00;;;18.10;99.90;;;;;;5034471;28;20069;-71
2023/07/12 02:59:34;;;;;;;7.68;4.40;;;18.20;99.90;;;;;;5034501;28;20554;-71
2023/07/12 03:01:59;;;;;;;9.73;4.28;;;18.10;99.90;;;;;;5034424;28;20034;-71
2023/07/12 03:04:25;;;;;;;14.23;4.72;;;18.00;99.90;;;;;;5034585;28;20052;-71
2023/07/12 03:06:51;;;;;;;9.77;4.13;;;18.00;99.90;;;;;;5033885;28;20037;-71
2023/07/12 03:09:16;;;;;;;6.38;3.92;;;18.00;99.90;;;;;;5034624;28;20076;-71
2023/07/12 03:11:47;;;;;;;8.80;5.15;;;17.90;99.90;;;;;;5034479;28;20496;-71
2023/07/12 03:14:17;;;;;;;9.63;4.15;;;17.90;99.90;;;;;;5034468;28;20064;-71
2023/07/12 03:16:43;;;;;;;10.05;4.10;;;18.00;99.90;;;;;;5033996;28;20025;-71
2023/07/12 03:19:08;;;;;;;9.63;4.75;;;17.80;99.90;;;;;;5034119;28;20042;-71
2023/07/12 03:21:34;;;;;;;8.13;4.32;;;17.90;99.90;;;;;;5032760;28;20116;-71
2023/07/12 03:24:00;;;;;;;12.05;4.30;;;17.80;99.90;;;;;;5034155;28;20076;-71
2023/07/12 03:26:26;;;;;;;8.88;4.15;;;17.90;99.90;;;;;;5032379;28;20122;-72
2023/07/12 03:28:51;;;;;;;10.50;4.45;;;17.90;99.90;;;;;;5034004;28;20453;-71
2023/07/12 03:31:17;;;;;;;6.78;4.20;;;17.90;99.90;;;;;;5032553;28;20124;-72
2023/07/12 03:33:45;;;;;;;7.88;4.30;;;17.80;99.90;;;;;;5032759;28;20077;-71
2023/07/12 03:36:11;;;;;;;6.47;4.10;;;17.70;99.90;;;;;;5033084;28;20068;-71
2023/07/12 03:38:36;;;;;;;9.45;4.47;;;17.70;99.90;;;;;;5034072;28;20045;-71
2023/07/12 03:41:05;;;;;;;8.93;4.03;;;17.80;99.90;;;;;;5033868;28;20429;-72
2023/07/12 03:43:32;;;;;;;9.02;4.47;;;17.70;99.90;;;;;;5033630;28;20522;-71
2023/07/12 03:45:57;;;;;;;14.15;5.15;;;17.70;99.90;;;;;;5032326;28;20099;-71
2023/07/12 03:48:23;;;;;;;9.43;4.60;;;17.70;99.90;;;;;;5033582;28;20038;-71
2023/07/12 03:50:51;;;;;;;12.77;4.50;;;17.80;99.90;;;;;;5033760;28;20041;-71
2023/07/12 03:53:18;;;;;;;7.70;3.58;;;17.80;99.90;;;;;;5033756;28;20045;-70
2023/07/12 03:55:45;;;;;;;9.70;3.83;;;17.80;99.90;;;;;;5033220;28;20045;-71
2023/07/12 03:58:14;;;;;;;11.50;4.00;;;17.70;99.90;;;;;;5033352;28;20060;-71
2023/07/12 04:00:41;;;;;;;7.97;3.65;;;17.80;99.90;;;;;;5033244;28;20124;-71
2023/07/12 04:03:07;;;;;;;14.15;3.97;;;17.80;99.90;;;;;;5033324;28;20117;-71
2023/07/12 04:05:37;;;;;;;9.65;4.40;;;17.90;99.90;;;;;;5032208;28;20034;-71
2023/07/12 04:08:03;;;;;;;12.07;3.88;;;17.80;99.90;;;;;;5024558;28;20034;-71
2023/07/12 04:10:28;;;;;;;8.13;4.05;;;17.80;99.90;;;;;;5029278;28;20030;-71
2023/07/12 04:12:54;;;;;;;8.07;4.20;;;17.80;99.90;;;;;;5024488;28;20072;-71
2023/07/12 04:15:19;;;;;;;7.13;3.70;;;17.80;99.90;;;;;;5028157;28;20041;-71
2023/07/12 04:17:45;;;;;;;8.82;3.75;;;17.70;99.90;;;;;;5023361;28;20120;-71
2023/07/12 04:20:12;;;;;;;7.90;4.00;;;17.70;99.90;;;;;;5031283;28;20605;-71
2023/07/12 04:22:38;;;;;;;11.32;4.35;;;17.60;99.90;;;;;;5031420;28;20045;-71
2023/07/12 04:25:04;;;;;;;11.07;4.82;;;17.70;99.90;;;;;;5033015;28;20057;-71
2023/07/12 04:27:29;;;;;;;18.23;4.88;;;17.80;99.90;;;;;;5032432;28;20428;-71
2023/07/12 04:29:55;;;;;;;14.88;4.20;;;17.70;99.90;;;;;;5032788;28;20055;-71
2023/07/12 04:32:20;;;;;;;11.20;4.35;;;17.60;99.90;;;;;;5032730;28;20124;-71
2023/07/12 04:34:47;;;;;;;10.05;4.38;;;17.60;99.90;;;;;;5032967;28;20041;-71
2023/07/12 04:37:13;;;;;;;9.32;4.55;;;17.70;99.90;;;;;;5032397;28;20073;-70
2023/07/12 04:39:39;;;;;;;13.93;4.32;;;17.70;99.90;;;;;;5032714;28;20080;-71
2023/07/12 04:42:05;;;;;;;9.30;4.43;;;17.70;99.90;;;;;;5032515;28;20037;-71
2023/07/12 04:44:31;;;;;;;12.27;4.55;;;17.70;99.90;;;;;;5032496;28;20052;-71
2023/07/12 04:46:56;;;;;;;14.32;4.72;;;17.70;99.90;;;;;;5031971;28;20041;-71
2023/07/12 04:49:22;;;;;;;11.05;4.13;;;17.80;99.90;;;;;;5032714;28;20067;-71
2023/07/12 04:51:49;;;;;;;7.95;3.85;;;17.70;99.90;;;;;;5032592;28;20126;-71
2023/07/12 04:54:14;;;;;;;8.95;3.40;;;17.80;99.90;;;;;;5032262;28;20512;-71
2023/07/12 04:56:40;;;;;;;13.80;4.40;;;17.70;99.90;;;;;;5032197;28;20041;-71
2023/07/12 04:59:05;;;;;;;11.02;4.20;;;17.70;99.90;;;;;;5032378;28;20041;-70
2023/07/12 05:01:31;;;;;;;8.15;3.50;;;17.80;99.90;;;;;;5032037;28;20060;-71
2023/07/12 05:03:57;;;;;;;11.32;3.45;;;17.80;99.90;;;;;;5031863;28;20040;-71
2023/07/12 05:06:23;;;;;;;9.10;3.92;;;17.70;99.90;;;;;;5031753;28;20052;-71
2023/07/12 05:08:48;;;;;;;9.60;3.95;;;17.80;99.90;;;;;;5032275;28;20141;-71
2023/07/12 05:11:14;;;;;;;11.30;5.00;;;17.70;99.90;;;;;;5032109;28;20082;-71
2023/07/12 05:13:39;;;;;;;10.10;4.57;;;17.70;99.90;;;;;;5031958;28;20044;-71
2023/07/12 05:16:05;;;;;;;8.60;3.75;;;17.80;99.90;;;;;;5031572;28;20400;-71
2023/07/12 05:18:30;;;;;;;12.68;5.13;;;17.80;99.90;;;;;;5031935;28;20044;-71
2023/07/12 05:20:57;;;;;;;10.63;3.95;;;17.70;99.90;;;;;;5031821;28;20033;-71
2023/07/12 05:23:23;;;;;;;12.85;4.97;;;17.70;99.90;;;;;;5031738;28;20559;-71
2023/07/12 05:25:51;;;;;;;8.68;5.05;;;17.80;99.90;;;;;;5031418;28;20124;-71
2023/07/12 05:28:16;;;;;;;8.43;4.20;;;17.90;99.90;;;;;;5031721;28;20528;-71
2023/07/12 05:30:42;;;;;;;13.32;4.72;;;17.70;99.90;;;;;;5031696;28;20067;-71
2023/07/12 05:33:08;;;;;;;7.75;4.07;;;17.80;99.90;;;;;;5030583;28;20234;-71
2023/07/12 05:35:33;;;;;;;10.95;5.18;;;17.90;99.90;;;;;;5031507;28;20037;-71
2023/07/12 05:37:59;;;;;;;13.73;5.78;;;17.90;99.90;;;;;;5031573;28;20121;-71
2023/07/12 05:40:24;;;;;;;10.07;4.88;;;18.00;99.90;;;;;;5031710;28;20026;-71
2023/07/12 05:42:51;;;;;;;14.48;4.82;;;17.90;99.90;;;;;;5031747;28;20523;-71
2023/07/12 05:45:16;;;;;;;15.30;5.40;;;18.00;99.90;;;;;;5031551;28;20033;-71
2023/07/12 05:47:47;;;;;;;13.85;4.97;;;18.00;99.90;;;;;;5031065;28;20182;-72
2023/07/12 05:50:14;;;;;;;9.05;5.10;;;18.00;99.90;;;;;;5030278;28;20037;-72
2023/07/12 05:52:40;;;;;;;9.88;5.10;;;18.10;99.90;;;;;;5031381;28;20055;-72
2023/07/12 05:55:08;;;;;;;13.93;5.63;;;18.10;99.90;;;;;;5031317;28;20408;-71
2023/07/12 05:57:34;;;;;;;12.90;5.03;;;18.10;99.90;;;;;;5029969;28;20404;-71
2023/07/12 06:00:00;;;;;;;14.35;5.25;;;18.00;99.90;;;;;;5031464;28;20044;-72
2023/07/12 06:02:26;;;;;;;14.70;5.13;;;18.10;99.90;;;;;;5030531;28;20052;-71
2023/07/12 06:04:52;;;;;;;15.13;5.15;;;18.00;99.90;;;;;;5031722;28;20496;-71
2023/07/12 06:07:17;;;;;;;15.75;6.25;;;18.10;99.90;;;;;;5029972;28;20041;-71
2023/07/12 06:09:43;;;;;;;13.77;5.90;;;18.10;99.90;;;;;;5031490;28;20034;-71
2023/07/12 06:12:09;;;;;;;9.45;4.72;;;18.00;99.90;;;;;;5029364;28;20539;-71
2023/07/12 06:14:35;;;;;;;10.60;5.15;;;18.00;99.90;;;;;;5026612;28;20077;-71
2023/07/12 06:17:01;;;;;;;9.73;5.15;;;17.90;99.90;;;;;;5021603;28;20080;-72
2023/07/12 06:19:27;;;;;;;15.27;6.40;;;18.10;99.90;;;;;;5023265;28;20073;-71
2023/07/12 06:21:52;;;;;;;10.25;6.07;;;18.20;99.90;;;;;;5031502;28;20069;-71
2023/07/12 06:24:18;;;;;;;10.57;6.25;;;18.40;99.90;;;;;;5031805;28;20033;-72
2023/07/12 06:26:44;;;;;;;11.73;6.43;;;18.50;99.90;;;;;;5022438;28;20072;-72
2023/07/12 06:29:10;;;;;;;10.35;5.30;;;18.80;99.90;;;;;;5034306;28;20113;-71
2023/07/12 06:31:35;;;;;;;12.43;5.13;;;18.70;99.90;;;;;;5034001;28;20450;-72
2023/07/12 06:34:03;;;;;;;14.15;5.70;;;18.90;99.90;;;;;;5035431;28;20484;-72
2023/07/12 06:36:30;;;;;;;10.65;5.10;;;18.90;99.90;;;;;;5034730;28;20041;-72
2023/07/12 06:38:56;;;;;;;13.45;6.18;;;19.10;99.90;;;;;;5033771;28;20049;-72
2023/07/12 06:41:22;;;;;;;16.10;5.65;;;19.00;99.90;;;;;;5034990;28;20419;-71
2023/07/12 06:43:47;;;;;;;13.15;6.45;;;18.90;99.90;;;;;;5033709;28;20041;-71
2023/07/12 06:46:13;;;;;;;18.73;6.32;;;19.10;99.90;;;;;;5034638;28;20199;-72
2023/07/12 06:48:38;;;;;;;12.13;6.18;;;19.00;99.90;;;;;;5033809;28;20052;-72
2023/07/12 06:51:04;;;;;;;15.88;6.72;;;18.90;99.90;;;;;;5034914;28;20459;-71
2023/07/12 06:53:30;;;;;;;16.17;6.63;;;19.30;99.90;;;;;;5034762;28;20041;-72
2023/07/12 06:55:55;;;;;;;13.90;5.68;;;19.40;99.90;;;;;;5034267;28;20033;-71
2023/07/12 06:58:22;;;;;;;8.93;4.88;;;19.40;99.90;;;;;;5034604;28;20049;-72
2023/07/12 07:00:47;;;;;;;27.70;7.65;;;19.70;99.90;;;;;;5060443;22;20048;-71
2023/07/12 07:03:14;;;;;;;30.65;7.65;;;19.90;99.90;;;;;;5052669;28;20033;-71
2023/07/12 07:05:41;;;;;;;32.47;8.43;;;20.10;99.90;;;;;;5053105;28;20033;-71
2023/07/12 07:08:08;;;;;;;43.42;11.13;;;20.30;99.90;;;;;;5050936;28;20107;-71
2023/07/12 07:10:34;;;;;;;36.38;8.65;;;20.30;99.90;;;;;;5038264;28;20029;-71
2023/07/12 07:13:00;;;;;;;11.50;4.32;;;20.50;99.90;;;;;;5025673;28;20045;-71
2023/07/12 07:15:26;;;;;;;11.55;4.03;;;20.20;99.90;;;;;;5018851;28;20038;-71
2023/07/12 07:17:52;;;;;;;9.80;3.58;;;20.50;99.90;;;;;;5014183;28;20026;-71
2023/07/12 07:20:18;;;;;;;8.43;3.75;;;20.50;99.90;;;;;;5014900;28;20041;-71
2023/07/12 07:22:43;;;;;;;31.30;6.43;;;20.60;99.90;;;;;;5013488;28;20104;-71
2023/07/12 07:25:09;;;;;;;42.08;9.10;;;20.30;99.90;;;;;;5015061;28;20034;-71
2023/07/12 07:27:34;;;;;;;19.25;6.70;;;20.20;99.90;;;;;;5015087;28;20046;-71
2023/07/12 07:30:00;;;;;;;9.43;3.58;;;20.10;99.90;;;;;;5015616;28;20080;-71
2023/07/12 07:32:26;;;;;;;9.88;3.80;;;20.40;99.90;;;;;;5014713;28;20129;-71
2023/07/12 07:34:51;;;;;;;7.25;2.83;;;20.80;99.90;;;;;;5015021;28;20493;-71
2023/07/12 07:37:17;;;;;;;11.82;3.75;;;20.80;99.90;;;;;;5014520;28;20124;-71
2023/07/12 07:39:42;;;;;;;9.70;3.80;;;20.60;99.90;;;;;;5028588;28;20358;-71
2023/07/12 07:42:08;;;;;;;13.88;4.10;;;20.40;99.90;;;;;;5032809;28;20084;-71
2023/07/12 07:44:34;;;;;;;8.45;3.42;;;20.10;99.90;;;;;;5033767;28;20080;-71
2023/07/12 07:46:59;;;;;;;14.63;4.43;;;20.20;99.90;;;;;;5033699;28;20084;-71
2023/07/12 07:49:26;;;;;;;8.90;3.85;;;19.90;99.90;;;;;;5033949;28;20033;-71
2023/07/12 07:51:51;;;;;;;14.02;4.72;;;19.70;99.90;;;;;;5024753;28;20088;-70
2023/07/12 07:54:17;;;;;;;10.48;5.00;;;19.50;99.90;;;;;;5023110;28;20060;-71
2023/07/12 07:56:43;;;;;;;31.02;7.20;;;19.50;99.90;;;;;;5024100;28;20033;-71
2023/07/12 07:59:08;;;;;;;32.10;6.90;;;19.40;99.90;;;;;;5028871;28;20161;-71
2023/07/12 08:01:34;;;;;;;14.45;4.90;;;19.40;99.90;;;;;;5027167;28;20044;-71
2023/07/12 08:03:59;;;;;;;12.10;4.53;;;19.60;99.90;;;;;;5023969;28;20033;-71
2023/07/12 08:06:25;;;;;;;13.20;4.68;;;19.70;99.90;;;;;;5020276;28;20471;-71
2023/07/12 08:08:52;;;;;;;14.73;5.07;;;19.60;99.90;;;;;;5013676;28;20125;-71
2023/07/12 08:11:17;;;;;;;11.93;4.25;;;19.20;99.90;;;;;;5016308;28;20033;-71
2023/07/12 08:13:43;;;;;;;27.75;6.07;;;19.00;99.90;;;;;;5021897;28;20530;-70
2023/07/12 08:16:09;;;;;;;21.83;5.70;;;18.90;99.90;;;;;;5017503;28;20034;-70
2023/07/12 08:18:34;;;;;;;13.77;5.05;;;19.00;99.90;;;;;;5021310;28;20671;-71
2023/07/12 08:21:00;;;;;;;10.50;3.97;;;19.40;99.90;;;;;;5013056;28;20557;-71
2023/07/12 08:23:27;;;;;;;23.38;6.15;;;19.80;99.90;;;;;;5015608;28;20038;-71
2023/07/12 08:25:53;;;;;;;20.33;5.60;;;20.00;99.90;;;;;;5021061;28;20124;-71
2023/07/12 08:28:19;;;;;;;13.82;4.65;;;19.90;99.90;;;;;;5013455;28;20124;-71
2023/07/12 08:30:45;;;;;;;37.45;9.63;;;19.80;99.90;;;;;;5011791;28;20096;-71
2023/07/12 08:33:11;;;;;;;15.43;4.88;;;20.10;99.90;;;;;;5013234;28;20054;-71
2023/07/12 08:35:36;;;;;;;43.25;8.48;;;20.40;99.90;;;;;;5012440;28;20073;-71
2023/07/12 08:38:02;;;;;;;11.52;4.28;;;20.50;99.90;;;;;;5022686;28;20497;-71
2023/07/12 08:40:28;;;;;;;10.65;3.65;;;20.40;99.90;;;;;;5029696;28;20514;-72
2023/07/12 08:42:54;;;;;;;11.55;3.95;;;20.50;99.90;;;;;;5031778;28;20041;-72
2023/07/12 08:45:25;;;;;;;19.92;4.90;;;20.30;99.90;;;;;;5032440;28;20131;-72
2023/07/12 08:47:57;;;;;;;16.65;4.50;;;20.20;99.90;;;;;;5020761;28;20539;-72
2023/07/12 08:50:24;;;;;;;22.92;5.10;;;20.90;99.90;;;;;;5020636;28;20432;-72
2023/07/12 08:52:50;;;;;;;10.10;4.05;;;21.20;99.90;;;;;;5029328;28;20064;-71
2023/07/12 08:55:19;;;;;;;10.70;3.63;;;21.10;99.90;;;;;;5032499;28;20474;-71
2023/07/12 08:57:52;;;;;;;11.90;4.50;;;20.90;99.90;;;;;;5030841;28;20038;-71
2023/07/12 09:00:27;;;;;;;9.70;3.80;;;20.60;99.90;;;;;;5032481;28;20049;-71
2023/07/12 09:02:53;;;;;;;23.25;6.85;;;20.20;99.90;;;;;;5011115;28;20049;-71
2023/07/12 09:05:22;;;;;;;14.98;5.18;;;19.60;99.90;;;;;;5016488;28;20044;-71
2023/07/12 09:07:54;;;;;;;5.30;2.45;;;19.50;99.90;;;;;;5001241;28;20204;-71
2023/07/12 09:10:39;;;;;;;6.72;2.85;;;19.20;99.90;;;;;;5011509;28;20042;-71
2023/07/12 09:13:06;;;;;;;7.82;3.22;;;19.10;99.90;;;;;;5012869;28;20177;-70
2023/07/12 09:15:39;;;;;;;10.23;3.20;;;18.90;99.90;;;;;;5012152;28;20112;-70
2023/07/12 09:18:08;;;;;;;7.03;3.70;;;18.80;99.90;;;;;;5012786;28;20041;-70
2023/07/12 09:20:38;;;;;;;10.05;4.35;;;19.10;99.90;;;;;;5012951;28;20037;-71
2023/07/12 09:23:06;;;;;;;11.30;4.38;;;19.50;99.90;;;;;;5012621;28;20040;-70
2023/07/12 09:25:37;;;;;;;12.50;5.70;;;19.90;99.90;;;;;;5012452;28;20041;-70
2023/07/12 09:28:04;;;;;;;12.30;4.65;;;20.30;99.90;;;;;;5017230;28;20069;-71
2023/07/12 09:30:30;;;;;;;10.52;4.60;;;20.20;99.90;;;;;;5022201;28;20041;-71
2023/07/12 09:32:57;;;;;;;11.45;4.70;;;20.10;99.90;;;;;;5015160;28;20096;-71
2023/07/12 09:35:28;;;;;;;10.10;4.25;;;19.80;99.90;;;;;;5023977;28;20068;-71
2023/07/12 09:38:04;;;;;;;13.55;5.25;;;19.70;99.90;;;;;;5015066;28;20048;-71
2023/07/12 09:40:39;;;;;;;17.15;6.30;;;19.40;99.90;;;;;;5012386;28;20042;-70
2023/07/12 09:43:21;;;;;;;17.40;6.75;;;19.40;99.90;;;;;;5011773;28;20104;-71
2023/07/12 09:46:18;;;;;;;13.88;5.72;;;19.20;99.90;;;;;;5010530;28;20050;-71
2023/07/12 09:49:00;;;;;;;24.48;5.57;;;19.10;99.90;;;;;;5011668;28;20044;-71
2023/07/12 09:51:42;;;;;;;14.98;4.60;;;19.00;99.90;;;;;;5012158;28;20037;-71
2023/07/12 09:54:45;;;;;;;15.25;6.25;;;18.90;99.90;;;;;;5012611;28;20112;-72
2023/07/12 09:57:35;;;;;;;17.40;6.93;;;18.70;99.90;;;;;;5011537;28;20077;-71
2023/07/12 10:00:04;;;;;;;14.30;5.75;;;18.70;99.90;;;;;;5012008;28;20417;-71
2023/07/12 10:02:37;;;;;;;17.00;6.68;;;18.80;99.90;;;;;;5010560;28;20041;-73
2023/07/12 10:05:12;;;;;;;;;;;18.90;99.90;;;;;;5024317;28;20033;-71
2023/07/12 10:07:58;;;;;;;10.02;4.55;;;18.70;99.90;;;;;;5022022;28;19956;-71
2023/07/12 10:10:33;;;;;;;14.45;5.13;;;18.90;99.90;;;;;;5024610;28;20516;-71
2023/07/12 10:13:12;;;;;;;13.23;5.03;;;18.80;99.90;;;;;;5023888;28;20034;-71
2023/07/12 10:15:39;;;;;;;8.93;5.68;;;18.80;99.90;;;;;;5019330;28;20030;-70
2023/07/12 10:18:09;;;;;;;11.07;4.50;;;19.00;99.90;;;;;;5015239;28;20455;-70
2023/07/12 10:20:35;;;;;;;10.63;5.40;;;19.20;99.90;;;;;;5019685;28;20044;-70
2023/07/12 10:23:03;;;;;;;9.90;4.90;;;19.50;99.90;;;;;;5027274;28;20407;-71
2023/07/12 10:25:33;;;;;;;16.05;6.70;;;19.80;99.90;;;;;;5015431;28;20065;-71
2023/07/12 10:28:21;;;;;;;16.13;5.43;;;20.20;99.90;;;;;;5011898;28;20083;-70
2023/07/12 10:30:49;;;;;;;14.90;5.30;;;20.10;99.90;;;;;;5019551;28;20041;-71
2023/07/12 10:33:30;;;;;;;18.70;5.32;;;20.40;99.90;;;;;;5021539;28;20038;-71
2023/07/12 10:36:01;;;;;;;9.38;4.53;;;20.60;99.90;;;;;;5011347;28;20046;-71
2023/07/12 10:38:28;;;;;;;9.27;3.92;;;20.60;99.90;;;;;;5011648;28;20520;-70
2023/07/12 10:41:32;;;;;;;9.25;4.32;;;20.60;99.90;;;;;;5022608;28;20045;-70
2023/07/12 10:44:15;;;;;;;7.45;3.55;;;20.40;99.90;;;;;;5007269;28;20451;-70
2023/07/12 10:46:45;;;;;;;8.38;3.45;;;20.20;99.90;;;;;;5009707;28;20169;-71
2023/07/12 10:49:16;;;;;;;7.63;3.40;;;20.00;99.90;;;;;;5011666;28;20078;-71
2023/07/12 10:52:26;;;;;;;4.63;3.38;;;20.00;99.90;;;;;;5011227;28;20052;-72
2023/07/12 10:55:26;;;;;;;6.00;3.10;;;19.90;99.90;;;;;;4951542;28;20069;-71
2023/07/12 10:57:52;;;;;;;6.72;3.40;;;20.10;99.90;;;;;;4939439;28;20058;-70
2023/07/12 11:00:23;;;;;;;10.63;3.80;;;19.80;99.90;;;;;;4995331;28;20054;-71
2023/07/12 11:03:11;;;;;;;7.55;2.80;;;19.70;99.90;;;;;;5017521;28;20045;-71
2023/07/12 11:05:41;;;;;;;9.65;3.05;;;19.60;99.90;;;;;;5010870;28;20096;-70
2023/07/12 11:08:29;;;;;;;6.05;2.95;;;19.60;99.90;;;;;;5011028;28;20095;-70
2023/07/12 11:10:58;;;;;;;8.07;3.60;;;19.80;99.90;;;;;;5011072;28;20499;-71
2023/07/12 11:13:30;;;;;;;4.75;2.78;;;19.90;99.90;;;;;;5011984;28;20037;-71
2023/07/12 11:16:13;;;;;;;5.95;2.88;;;19.80;99.90;;;;;;5028325;28;20049;-71
2023/07/12 11:18:51;;;;;;;3.90;2.25;;;20.10;99.90;;;;;;5026198;28;20520;-71
2023/07/12 11:21:41;;;;;;;7.68;2.75;;;20.10;99.90;;;;;;5026382;28;20101;-71
2023/07/12 11:24:25;;;;;;;4.82;2.47;;;20.30;99.90;;;;;;5031597;28;20087;-70
2023/07/12 11:26:55;;;;;;;6.40;2.60;;;20.40;99.90;;;;;;5031845;28;20121;-71
2023/07/12 11:29:24;;;;;;;5.53;2.30;;;20.50;99.90;;;;;;5034764;28;20075;-71
2023/07/12 11:32:17;;;;;;;4.63;2.78;;;20.30;99.90;;;;;;5034323;28;20041;-71
2023/07/12 11:34:45;;;;;;;7.25;2.58;;;20.20;99.90;;;;;;5033255;28;20053;-72
2023/07/12 11:37:36;;;;;;;4.78;2.20;;;20.10;99.90;;;;;;5033873;28;20049;-71
2023/07/12 11:40:10;;;;;;;6.30;2.50;;;20.10;99.90;;;;;;5027025;28;20040;-70
2023/07/12 11:42:35;;;;;;;5.30;2.67;;;20.30;99.90;;;;;;5030674;28;20095;-71
2023/07/12 11:45:11;;;;;;;4.72;2.30;;;20.60;99.90;;;;;;5028800;28;20042;-70
2023/07/12 11:47:51;;;;;;;7.05;2.35;;;20.70;99.90;;;;;;5013729;28;20034;-70
2023/07/12 11:50:26;;;;;;;6.15;2.38;;;20.90;99.90;;;;;;5014384;28;20103;-70
2023/07/12 11:52:53;;;;;;;2.28;1.48;;;20.90;99.90;;;;;;5018261;28;20066;-69
2023/07/12 11:55:22;;;;;;;5.75;1.85;;;21.10;99.90;;;;;;5022729;28;20052;-70
2023/07/12 11:57:48;;;;;;;7.90;2.70;;;21.20;99.90;;;;;;5030873;28;20045;-70
2023/07/12 12:00:21;;;;;;;7.95;2.58;;;21.40;99.90;;;;;;5025108;28;20061;-70
2023/07/12 12:02:52;;;;;;;2.40;1.70;;;21.30;99.90;;;;;;5032815;28;20041;-70
2023/07/12 12:05:26;;;;;;;7.55;1.33;;;21.20;99.90;;;;;;5033741;28;20046;-70
2023/07/12 12:07:57;;;;;;;2.95;1.40;;;21.10;99.90;;;;;;5033423;28;20106;-70
2023/07/12 12:10:37;;;;;;;4.57;1.70;;;21.10;99.90;;;;;;5033479;28;20057;-70
2023/07/12 12:13:18;;;;;;;2.35;1.20;;;21.00;99.90;;;;;;5032161;28;20052;-70
2023/07/12 12:15:48;;;;;;;3.90;1.05;;;21.00;99.90;;;;;;5032888;28;20467;-69
2023/07/12 12:18:18;;;;;;;5.05;1.08;;;21.20;99.90;;;;;;5033398;28;20038;-70
2023/07/12 12:20:58;;;;;;;4.30;1.30;;;21.40;99.90;;;;;;5029812;28;20041;-71
2023/07/12 12:23:47;;;;;;;7.25;1.60;;;21.50;99.90;;;;;;5025332;28;20047;-71
2023/07/12 12:26:28;;;;;;;2.58;1.63;;;21.60;99.90;;;;;;5032370;28;20049;-70
2023/07/12 12:29:28;;;;;;;2.95;1.30;;;21.60;99.90;;;;;;5033320;28;20061;-70
2023/07/12 12:32:02;;;;;;;5.63;1.10;;;21.40;99.90;;;;;;5021092;28;20069;-69
2023/07/12 12:34:36;;;;;;;5.20;1.10;;;21.30;99.90;;;;;;5033214;28;20108;-70
2023/07/12 12:37:05;;;;;;;3.45;0.90;;;21.20;99.90;;;;;;5032718;28;20408;-70
2023/07/12 12:39:31;;;;;;;2.60;1.20;;;21.30;99.90;;;;;;5032897;28;20038;-70
2023/07/12 12:42:18;;;;;;;3.70;1.15;;;21.40;99.90;;;;;;5032684;28;20063;-71
2023/07/12 12:44:44;;;;;;;2.45;1.20;;;21.40;99.90;;;;;;5032290;28;20053;-71
2023/07/12 12:47:19;;;;;;;2.83;1.10;;;21.50;99.90;;;;;;5032465;28;20042;-71
2023/07/12 12:49:45;;;;;;;2.35;1.10;;;21.50;99.90;;;;;;5032609;28;20037;-71
2023/07/12 12:52:27;;;;;;;2.67;0.90;;;21.60;99.90;;;;;;5031243;28;20090;-72
2023/07/12 12:54:56;;;;;;;2.78;0.80;;;21.50;99.90;;;;;;5031322;28;20094;-72